Kalamazoo Battle Creek International Airport
KAZO : now visible

Airfield :











YOU CAN JOIN US ON...

 
LOGIN :

Register | Disclaimer

   EN    FR    IT 

 









Legend :    VFR   Marginal VFR   IFR   Intensive IFR   Very Intensive IFR
Visi :
Ceiling :
>= 8 km
>= 3000ft
5 to 8 km
1000 to 3000 ft
1500m to 5 km
500 to 1000 ft
800 to 1500m
200 to 500 ft
< 800m
< 200 ft
Symbols :   Thunderstorms  Fog  Heavy snow  Heavy precipitations  Wind > 20 kt






- Airport Elevation : 874 ft
- IATA code : AZO


KAZO - Kalamazoo Battle Creek International

CURRENT METAR :
  • 220721Z AUTO 30013KT 10SM BKN022 OVC030 04/M01 A2997 RMK AO2 T00391006

EXPIRED METARs :
  • 220707Z AUTO 30013G19KT 10SM SCT022 OVC031 04/M01 A2996 RMK AO2 PRESRR T00391006
  • 220653Z AUTO 30011KT 10SM BKN024 OVC031 04/00 A2994 RMK AO2 SLP145 T00390000
  • 220553Z AUTO 30010KT 10SM OVC019 04/01 A2991 RMK AO2 SLP132 60001 T00440011 10094 20044 51013
  • 220453Z AUTO 30015G22KT 10SM OVC018 04/02 A2990 RMK AO2 PK WND 29026/0420 RAE04B13E24 SLP129 P0000 T00440017 401170044

TAF KAZO
Valid from the 22 at 06:00 until the 23 at 06:00 UTC


220540Z 2206/2306 31014G22KT P6SM OVC018
FM221300 32010KT P6SM OVC020
FM222000 30009KT P6SM SKC



MET'MAP, your aeronautical weather chart ! - Copyright ORBIFLY December 2007 - Disclaimer

ORBIFLY MET'MAP TEAM :

Programming & Development : Alexandra Zaïnal
Concept & Development : Baudouin d'Aumeries
Co-Development & Prog : Marc-Olivier Méhu
Technical & hardware support : Manuel Goepfert

Contact : metmap@orbifly.com




SOURCES & CREDITS :

   NOAA       Earth
Advisory